sensor_id;sensor_type;location;lat;lon;timestamp;pressure;altitude;pressure_sealevel;temperature;humidity
77631;BME280;66798;47.370;8.552;2023-05-20T16:33:28;96347.41;;;19.46;57.01
77631;BME280;66798;47.370;8.552;2023-05-20T16:35:53;96346.19;;;19.43;56.87
77631;BME280;66798;47.370;8.552;2023-05-20T16:38:20;96346.06;;;19.52;57.78
77631;BME280;66798;47.370;8.552;2023-05-20T16:40:46;96348.88;;;19.56;57.45
77631;BME280;66798;47.370;8.552;2023-05-20T16:43:11;96350.56;;;19.60;57.77
77631;BME280;66798;47.370;8.552;2023-05-20T16:45:37;96350.84;;;19.46;58.11
77631;BME280;66798;47.370;8.552;2023-05-20T16:48:02;96351.88;;;19.54;57.65
77631;BME280;66798;47.370;8.552;2023-05-20T16:50:28;96353.31;;;19.64;57.00
77631;BME280;66798;47.370;8.552;2023-05-20T16:52:53;96356.00;;;19.64;57.08
77631;BME280;66798;47.370;8.552;2023-05-20T16:55:20;96355.16;;;19.72;57.42
77631;BME280;66798;47.370;8.552;2023-05-20T16:57:46;96362.31;;;19.59;56.89
77631;BME280;66798;47.370;8.552;2023-05-20T17:00:12;96363.69;;;19.65;57.34
77631;BME280;66798;47.370;8.552;2023-05-20T17:02:38;96363.50;;;19.70;57.49
77631;BME280;66798;47.370;8.552;2023-05-20T17:05:04;96361.28;;;19.72;57.27
77631;BME280;66798;47.370;8.552;2023-05-20T17:07:29;96359.06;;;19.75;57.36
77631;BME280;66798;47.370;8.552;2023-05-20T17:09:55;96362.50;;;19.75;56.67
77631;BME280;66798;47.370;8.552;2023-05-20T17:12:20;96361.59;;;19.71;57.15
77631;BME280;66798;47.370;8.552;2023-05-20T17:14:46;96349.69;;;19.68;57.12
77631;BME280;66798;47.370;8.552;2023-05-20T17:17:11;96359.91;;;19.66;57.47
77631;BME280;66798;47.370;8.552;2023-05-20T17:19:38;96359.00;;;19.62;56.52
77631;BME280;66798;47.370;8.552;2023-05-20T17:22:04;96355.53;;;19.49;56.62
77631;BME280;66798;47.370;8.552;2023-05-20T17:24:29;96357.09;;;19.50;56.99
77631;BME280;66798;47.370;8.552;2023-05-20T17:26:55;96358.53;;;19.48;57.61
77631;BME280;66798;47.370;8.552;2023-05-20T17:29:20;96352.75;;;19.46;58.47
77631;BME280;66798;47.370;8.552;2023-05-20T17:31:46;96356.50;;;19.45;58.44
77631;BME280;66798;47.370;8.552;2023-05-20T17:34:11;96356.41;;;19.41;58.30
77631;BME280;66798;47.370;8.552;2023-05-20T17:36:37;96362.41;;;19.38;58.82
77631;BME280;66798;47.370;8.552;2023-05-20T17:39:03;96359.59;;;19.35;59.34
77631;BME280;66798;47.370;8.552;2023-05-20T17:41:29;96359.50;;;19.31;58.89
77631;BME280;66798;47.370;8.552;2023-05-20T17:43:54;96364.38;;;19.29;58.86
77631;BME280;66798;47.370;8.552;2023-05-20T17:46:20;96361.56;;;19.25;58.89
77631;BME280;66798;47.370;8.552;2023-05-20T17:48:46;96359.56;;;19.22;58.74
77631;BME280;66798;47.370;8.552;2023-05-20T17:51:11;96364.78;;;19.19;58.99
77631;BME280;66798;47.370;8.552;2023-05-20T17:53:37;96355.41;;;19.13;59.28
77631;BME280;66798;47.370;8.552;2023-05-20T17:56:03;96356.59;;;19.03;59.39
77631;BME280;66798;47.370;8.552;2023-05-20T17:58:28;96354.25;;;19.01;59.79
77631;BME280;66798;47.370;8.552;2023-05-20T18:00:55;96356.16;;;19.01;60.11
77631;BME280;66798;47.370;8.552;2023-05-20T18:03:20;96354.13;;;18.98;60.57
77631;BME280;66798;47.370;8.552;2023-05-20T18:05:47;96352.44;;;18.93;60.60
77631;BME280;66798;47.370;8.552;2023-05-20T18:08:12;96357.78;;;18.93;60.92
77631;BME280;66798;47.370;8.552;2023-05-20T18:10:38;96355.44;;;18.92;60.47
77631;BME280;66798;47.370;8.552;2023-05-20T18:13:03;96357.19;;;18.87;61.36
77631;BME280;66798;47.370;8.552;2023-05-20T18:15:29;96365.84;;;18.84;61.40
77631;BME280;66798;47.370;8.552;2023-05-20T18:17:54;96361.16;;;18.81;61.24
77631;BME280;66798;47.370;8.552;2023-05-20T18:20:20;96365.56;;;18.77;61.62
77631;BME280;66798;47.370;8.552;2023-05-20T18:22:46;96368.09;;;18.74;61.82
77631;BME280;66798;47.370;8.552;2023-05-20T18:25:12;96367.94;;;18.70;62.04
77631;BME280;66798;47.370;8.552;2023-05-20T18:27:38;96357.59;;;18.68;62.56
77631;BME280;66798;47.370;8.552;2023-05-20T18:30:04;96371.41;;;18.50;63.76
77631;BME280;66798;47.370;8.552;2023-05-20T18:32:30;96373.06;;;18.54;63.45
77631;BME280;66798;47.370;8.552;2023-05-20T18:34:55;96367.94;;;18.49;63.44
77631;BME280;66798;47.370;8.552;2023-05-20T18:37:22;96371.06;;;18.51;63.59
77631;BME280;66798;47.370;8.552;2023-05-20T18:39:47;96374.94;;;18.54;63.17
77631;BME280;66798;47.370;8.552;2023-05-20T18:42:13;96379.81;;;18.52;63.25
77631;BME280;66798;47.370;8.552;2023-05-20T18:44:39;96372.47;;;18.49;63.22
77631;BME280;66798;47.370;8.552;2023-05-20T18:47:04;96365.34;;;18.40;63.58
77631;BME280;66798;47.370;8.552;2023-05-20T18:49:30;96374.56;;;18.43;63.76
77631;BME280;66798;47.370;8.552;2023-05-20T18:51:55;96375.06;;;18.36;63.81
77631;BME280;66798;47.370;8.552;2023-05-20T18:54:21;96366.31;;;18.36;64.23
77631;BME280;66798;47.370;8.552;2023-05-20T18:56:46;96368.50;;;18.34;63.99
77631;BME280;66798;47.370;8.552;2023-05-20T18:59:13;96370.38;;;18.33;64.60
77631;BME280;66798;47.370;8.552;2023-05-20T19:01:38;96369.47;;;18.29;64.33
77631;BME280;66798;47.370;8.552;2023-05-20T19:04:04;96363.69;;;18.27;65.18
77631;BME280;66798;47.370;8.552;2023-05-20T19:06:29;96363.41;;;18.20;65.41
77631;BME280;66798;47.370;8.552;2023-05-20T19:08:56;96361.06;;;18.18;65.44
77631;BME280;66798;47.370;8.552;2023-05-20T19:11:21;96364.22;;;18.12;65.90
77631;BME280;66798;47.370;8.552;2023-05-20T19:13:47;96365.78;;;18.13;65.87
77631;BME280;66798;47.370;8.552;2023-05-20T19:16:12;96360.78;;;18.11;65.73
77631;BME280;66798;47.370;8.552;2023-05-20T19:18:38;96364.41;;;18.07;66.50
77631;BME280;66798;47.370;8.552;2023-05-20T19:21:03;96361.28;;;18.04;66.87
77631;BME280;66798;47.370;8.552;2023-05-20T19:23:29;96366.78;;;17.99;66.81
77631;BME280;66798;47.370;8.552;2023-05-20T19:25:56;96372.63;;;17.93;67.10
77631;BME280;66798;47.370;8.552;2023-05-20T19:28:21;96371.03;;;17.92;67.54
77631;BME280;66798;47.370;8.552;2023-05-20T19:30:47;96370.91;;;17.88;67.23
77631;BME280;66798;47.370;8.552;2023-05-20T19:33:12;96368.88;;;17.85;67.80
77631;BME280;66798;47.370;8.552;2023-05-20T19:35:38;96370.44;;;17.77;68.09
77631;BME280;66798;47.370;8.552;2023-05-20T19:38:03;96368.09;;;17.76;68.16
77631;BME280;66798;47.370;8.552;2023-05-20T19:40:30;96373.75;;;17.74;68.29
77631;BME280;66798;47.370;8.552;2023-05-20T19:42:55;96375.63;;;17.74;68.10
77631;BME280;66798;47.370;8.552;2023-05-20T19:45:21;96369.84;;;17.72;68.00
77631;BME280;66798;47.370;8.552;2023-05-20T19:47:48;96364.53;;;17.72;68.04
77631;BME280;66798;47.370;8.552;2023-05-20T19:50:14;96373.13;;;17.69;68.11
77631;BME280;66798;47.370;8.552;2023-05-20T19:52:40;96364.22;;;17.65;68.20
77631;BME280;66798;47.370;8.552;2023-05-20T19:55:05;96366.41;;;17.62;68.61
77631;BME280;66798;47.370;8.552;2023-05-20T19:57:31;96360.94;;;17.59;68.83
77631;BME280;66798;47.370;8.552;2023-05-20T19:59:57;96364.25;;;17.56;69.04
77631;BME280;66798;47.370;8.552;2023-05-20T20:02:22;96360.66;;;17.52;69.02
77631;BME280;66798;47.370;8.552;2023-05-20T20:04:48;96358.31;;;17.50;69.08
77631;BME280;66798;47.370;8.552;2023-05-20T20:07:13;96358.63;;;17.49;68.99
77631;BME280;66798;47.370;8.552;2023-05-20T20:09:39;96363.16;;;17.48;69.04
77631;BME280;66798;47.370;8.552;2023-05-20T20:12:05;96353.66;;;17.47;68.66
77631;BME280;66798;47.370;8.552;2023-05-20T20:14:31;96361.47;;;17.44;69.12
77631;BME280;66798;47.370;8.552;2023-05-20T20:16:57;96355.19;;;17.39;69.03
77631;BME280;66798;47.370;8.552;2023-05-20T20:19:24;96359.28;;;17.37;68.96
77631;BME280;66798;47.370;8.552;2023-05-20T20:21:51;96364.59;;;17.37;68.70
77631;BME280;66798;47.370;8.552;2023-05-20T20:24:18;96359.44;;;17.32;69.18
77631;BME280;66798;47.370;8.552;2023-05-20T20:26:43;96363.22;;;17.31;69.11
77631;BME280;66798;47.370;8.552;2023-05-20T20:29:12;96356.94;;;17.27;68.96
77631;BME280;66798;47.370;8.552;2023-05-20T20:31:38;96352.59;;;17.22;69.59
77631;BME280;66798;47.370;8.552;2023-05-20T20:34:03;96352.13;;;17.20;69.31
77631;BME280;66798;47.370;8.552;2023-05-20T20:36:28;96343.53;;;17.14;69.80
77631;BME280;66798;47.370;8.552;2023-05-20T20:39:02;96346.97;;;17.15;69.96
77631;BME280;66798;47.370;8.552;2023-05-20T20:41:29;96349.47;;;17.11;70.00
77631;BME280;66798;47.370;8.552;2023-05-20T20:43:55;96344.63;;;17.05;70.51
77631;BME280;66798;47.370;8.552;2023-05-20T20:46:21;96346.34;;;17.01;71.04
77631;BME280;66798;47.370;8.552;2023-05-20T20:48:46;96346.06;;;17.02;70.81
77631;BME280;66798;47.370;8.552;2023-05-20T20:51:16;96345.56;;;17.00;71.07
77631;BME280;66798;47.370;8.552;2023-05-20T20:53:42;96346.81;;;16.94;71.08
77631;BME280;66798;47.370;8.552;2023-05-20T20:56:08;96342.28;;;16.94;70.75
